Darstellungsparameter: Aktuell verwendete Einstellungen:
Skalierung der Graphiken ... ?
xyx+y,   Skalierungsfaktor:      Skalierung: Modus: x, Faktor: 1
Darstellungszeitraum ... ?
Vom - - bis: - -   Zeitraum: 24.05.2004 - 30.05.2004
Min/Max/Avg-Anzeige ... ?
Zeige MMA aktuell
Zeige MMA Monat
Zeige MMA alles
Zeige --A aktuell
Zeige --A Monat
Zeige --A alles
Keine MMA-Anzeige
MMA:
Keine MMA-Graphiken
MMA-Basis: 24.05.2004 - 30.05.2004
Quicknavigation für Darstellung... ?
Tage:      1T, 2T, 3T, 5T -1T -2T -3T -5T +1T +2T +3T +5T
Wochen: 1W, 2W, 3W -1W -2W -3W +1W +2W +3W
Monate: 1M, 3M, 6M -1M -3M -6M +1M +3M +6M
Jahre:    1J, 3J, 5J, 10J -1J -3J -5J -10J +1J +3J +5J +10J
Nutze für die Darstellung ... ?
Originaldaten oder Mittelwerte auf ...
Stundenbasis Tagesbasis Wochenbasis
Monatsbasis Jahresbasis      Datenbasis: Original-Daten
Darstellen als:
Statistik (Auto) Statistik J:M      Darstellung:
Zur Graphik,    zurück zur Übersicht aller Sensoren.
 
Tabellarische Datenbersicht: ?
 
Sensor: Nr:Datum:Temp:Abs-Feuchte:Windchill:Wind:
Aussen-T/F 1 24-05-2004 00:00:01 8.1 C 4.91 g/m*3 8.1 C 0 km/h
2 24-05-2004 00:12:01 8 C 4.96 g/m*3 8 C 0 km/h
3 24-05-2004 00:24:01 7.5 C 4.96 g/m*3 7.5 C 0 km/h
4 24-05-2004 00:36:01 7.2 C 5.02 g/m*3 7.2 C 0 km/h
5 24-05-2004 00:48:01 6.9 C 5.08 g/m*3 6.9 C 0 km/h
6 24-05-2004 01:00:01 6.7 C 5.09 g/m*3 6.7 C 0 km/h
7 24-05-2004 01:12:01 6.5 C 5.1 g/m*3 6.5 C 0 km/h
8 24-05-2004 01:24:01 6.3 C 5.03 g/m*3 6.3 C 0 km/h
9 24-05-2004 01:36:01 6 C 5.01 g/m*3 6 C 0 km/h
10 24-05-2004 01:48:01 5.6 C 5.09 g/m*3 5.6 C 0 km/h
11 24-05-2004 02:00:01 5.6 C 5.09 g/m*3 5.6 C 0 km/h
12 24-05-2004 02:12:01 5.4 C 5.09 g/m*3 5.4 C 0 km/h
13 24-05-2004 02:24:01 5.2 C 5.1 g/m*3 5.2 C 0 km/h
14 24-05-2004 02:36:01 5 C 5.03 g/m*3 5 C 0 km/h
15 24-05-2004 02:49:02 5 C 5.03 g/m*3 5 C 0 km/h
16 24-05-2004 03:01:02 4.8 C 5.1 g/m*3 4.8 C 0 km/h
17 24-05-2004 03:13:02 4.4 C 5.09 g/m*3 4.4 C 0 km/h
18 24-05-2004 03:25:02 4.2 C 5.03 g/m*3 4.2 C 0 km/h
19 24-05-2004 03:37:01 4 C 4.96 g/m*3 4 C 0 km/h
20 24-05-2004 03:49:01 4 C 5.09 g/m*3 4 C 0 km/h
21 24-05-2004 04:01:01 3.9 C 5.12 g/m*3 3.9 C 0 km/h
22 24-05-2004 04:13:01 3.7 C 5.11 g/m*3 3.7 C 0 km/h
23 24-05-2004 04:25:01 3.6 C 5.14 g/m*3 3.6 C 0 km/h
24 24-05-2004 04:37:01 3.5 C 5.1 g/m*3 3.5 C 0 km/h
25 24-05-2004 04:49:01 3.4 C 5.07 g/m*3 3.4 C 0 km/h
Sensor: Nr:Datum:Temp:Abs-Feuchte:Windchill:Wind:
Aussen-T/F 26 24-05-2004 05:01:02 3.1 C 5.03 g/m*3 3.1 C 0 km/h
27 24-05-2004 05:13:02 3 C 4.99 g/m*3 3 C 0 km/h
28 24-05-2004 05:25:02 2.9 C 5.02 g/m*3 2.9 C 0 km/h
29 24-05-2004 05:37:02 2.8 C 5.04 g/m*3 2.8 C 0 km/h
30 24-05-2004 05:49:02 2.8 C 5.04 g/m*3 2.8 C 0 km/h
31 24-05-2004 06:01:02 2.8 C 5.04 g/m*3 2.8 C 0 km/h
32 24-05-2004 06:13:02 2.7 C 5.07 g/m*3 2.7 C 0 km/h
33 24-05-2004 06:25:02 2.8 C 5.1 g/m*3 2.8 C 0 km/h
34 24-05-2004 06:37:02 3 C 5.11 g/m*3 3 C 0 km/h
35 24-05-2004 06:49:01 3.2 C 5.12 g/m*3 3.2 C 0 km/h
36 24-05-2004 07:01:01 3.2 C 5.06 g/m*3 3.2 C 0 km/h
37 24-05-2004 07:13:01 3.4 C 5.13 g/m*3 3.4 C 0 km/h
38 24-05-2004 07:25:01 3.5 C 5.1 g/m*3 3.5 C 0 km/h
39 24-05-2004 07:37:01 3.7 C 5.17 g/m*3 3.7 C 0 km/h
40 24-05-2004 07:49:01 4 C 5.21 g/m*3 4 C 0 km/h
41 24-05-2004 08:01:01 4.5 C 5.32 g/m*3 4.5 C 0 km/h
42 24-05-2004 08:13:01 5 C 5.3 g/m*3 5 C 0 km/h
43 24-05-2004 08:25:01 5.5 C 5.41 g/m*3 5.5 C 0 km/h
44 24-05-2004 08:37:01 6.2 C 5.37 g/m*3 6.2 C 0 km/h
45 24-05-2004 08:49:01 6.4 C 5.29 g/m*3 6.4 C 0 km/h
46 24-05-2004 09:01:01 7 C 5.42 g/m*3 7 C 0 km/h
47 24-05-2004 09:13:01 7.7 C 5.59 g/m*3 7.7 C 0 km/h
48 24-05-2004 09:25:01 8.5 C 5.64 g/m*3 8.5 C 0 km/h
49 24-05-2004 09:37:01 9 C 5.55 g/m*3 9 C 0 km/h
50 24-05-2004 09:49:01 9.7 C 5.62 g/m*3 9.7 C 0 km/h
Sensor: Nr:Datum:Temp:Abs-Feuchte:Windchill:Wind:
Aussen-T/F 51 24-05-2004 10:01:01 10.4 C 5.49 g/m*3 10.4 C 0 km/h
52 24-05-2004 10:13:01 11.1 C 5.44 g/m*3 11.1 C 0 km/h
53 24-05-2004 10:25:01 11.7 C 5.54 g/m*3 11.7 C 0 km/h
54 24-05-2004 10:37:01 11.6 C 4.68 g/m*3 11.6 C 0 km/h
55 24-05-2004 10:49:01 11.9 C 4.87 g/m*3 11.9 C 0 km/h
56 24-05-2004 11:01:01 12.7 C 4.9 g/m*3 12.7 C 0 km/h
57 24-05-2004 11:13:01 13 C 4.88 g/m*3 13 C 0 km/h
58 24-05-2004 11:25:01 13.8 C 5 g/m*3 13.8 C 0 km/h
59 24-05-2004 11:37:01 14.1 C 4.85 g/m*3 14.1 C 0 km/h
60 24-05-2004 11:49:01 14.9 C 4.84 g/m*3 14.9 C 0 km/h
61 24-05-2004 12:01:01 15.4 C 4.99 g/m*3 15.4 C 0 km/h
62 24-05-2004 12:13:01 15.6 C 4.65 g/m*3 15.6 C 0 km/h
63 24-05-2004 12:25:01 17.2 C 4.83 g/m*3 17.2 C 0 km/h
64 24-05-2004 12:37:01 16.7 C 4.41 g/m*3 16.7 C 0 km/h
65 24-05-2004 12:49:01 17.2 C 4.69 g/m*3 17.2 C 0 km/h
66 24-05-2004 13:01:01 18 C 4.61 g/m*3 18 C 0 km/h
67 24-05-2004 13:13:01 17.8 C 4.71 g/m*3 17.8 C 0 km/h
68 24-05-2004 13:25:01 18.9 C 4.37 g/m*3 18.9 C 0 km/h
69 24-05-2004 13:37:01 19.5 C 4.53 g/m*3 19.5 C 0 km/h
70 24-05-2004 13:49:01 19.1 C 4.59 g/m*3 19.1 C 0 km/h
71 24-05-2004 14:01:01 19.7 C 4.75 g/m*3 19.7 C 0 km/h
72 24-05-2004 14:13:01 17.8 C 4.55 g/m*3 17.8 C 0 km/h
73 24-05-2004 14:25:01 17.8 C 4.71 g/m*3 17.8 C 0 km/h
74 24-05-2004 14:37:01 18.1 C 5.1 g/m*3 18.1 C 0 km/h
75 24-05-2004 14:49:01 18.5 C 4.9 g/m*3 18.5 C 0 km/h
Sensor: Nr:Datum:Temp:Abs-Feuchte:Windchill:Wind:
Aussen-T/F 76 24-05-2004 15:01:01 18 C 4.61 g/m*3 18 C 0 km/h
77 24-05-2004 15:13:01 18.5 C 4.75 g/m*3 18.5 C 0 km/h
78 24-05-2004 15:25:01 19.3 C 5.31 g/m*3 19.3 C 0 km/h
79 24-05-2004 15:37:01 19 C 4.73 g/m*3 19 C 0 km/h
80 24-05-2004 15:49:01 19.1 C 5.08 g/m*3 19.1 C 0 km/h
81 24-05-2004 16:01:01 19.5 C 4.87 g/m*3 19.5 C 0 km/h
82 24-05-2004 16:13:01 19 C 5.05 g/m*3 19 C 0 km/h
83 24-05-2004 16:25:01 19.6 C 5.06 g/m*3 19.6 C 0 km/h
84 24-05-2004 16:37:01 19.3 C 4.64 g/m*3 19.3 C 0 km/h
85 24-05-2004 16:49:01 20 C 4.84 g/m*3 20 C 0 km/h
86 24-05-2004 17:01:01 20.6 C 4.47 g/m*3 20.6 C 0 km/h
87 24-05-2004 17:13:01 20.1 C 4.69 g/m*3 20.1 C 0 km/h
88 24-05-2004 17:25:01 19.9 C 4.81 g/m*3 19.9 C 0 km/h
89 24-05-2004 17:37:01 20.8 C 4.89 g/m*3 20.8 C 0 km/h
90 24-05-2004 17:49:01 19.3 C 4.48 g/m*3 19.3 C 0 km/h
91 24-05-2004 18:01:01 19.1 C 4.92 g/m*3 19.1 C 0 km/h
92 24-05-2004 18:13:01 18.5 C 4.9 g/m*3 18.5 C 0 km/h
93 24-05-2004 18:25:01 18.3 C 5 g/m*3 18.3 C 0 km/h
94 24-05-2004 18:37:01 19.2 C 5.11 g/m*3 19.2 C 0 km/h
95 24-05-2004 18:49:01 19.7 C 5.09 g/m*3 19.7 C 0 km/h
96 24-05-2004 19:01:01 20.4 C 4.95 g/m*3 20.4 C 0 km/h
97 24-05-2004 19:13:01 19.4 C 5.01 g/m*3 19.4 C 0 km/h
98 24-05-2004 19:25:01 20.1 C 5.21 g/m*3 20.1 C 0 km/h
99 24-05-2004 19:37:01 19.8 C 5.12 g/m*3 19.8 C 0 km/h
100 24-05-2004 19:49:01 18.7 C 5.28 g/m*3 18.7 C 0 km/h
Sensor: Nr:Datum:Temp:Abs-Feuchte:Windchill:Wind:
Aussen-T/F 101 24-05-2004 20:01:01 18.4 C 5.19 g/m*3 18.4 C 0 km/h
102 24-05-2004 20:13:01 18.7 C 5.44 g/m*3 18.7 C 0 km/h
103 24-05-2004 20:25:01 18.3 C 5.47 g/m*3 18.3 C 0 km/h
104 24-05-2004 20:37:01 17.9 C 5.5 g/m*3 17.9 C 0 km/h
105 24-05-2004 20:49:01 17.1 C 5.82 g/m*3 17.1 C 0 km/h
106 24-05-2004 21:01:01 15.9 C 5.82 g/m*3 15.9 C 0 km/h
107 24-05-2004 21:13:01 14.7 C 5.79 g/m*3 14.7 C 0 km/h
108 24-05-2004 21:25:01 14 C 5.79 g/m*3 14 C 0 km/h
109 24-05-2004 21:37:01 13.8 C 5.84 g/m*3 13.8 C 0 km/h
110 24-05-2004 21:49:01 13.8 C 5.96 g/m*3 13.8 C 0 km/h
111 24-05-2004 22:01:01 13.4 C 5.93 g/m*3 13.4 C 0 km/h
112 24-05-2004 22:13:01 13 C 5.78 g/m*3 13 C 0 km/h
113 24-05-2004 22:25:01 13 C 6.01 g/m*3 13 C 0 km/h
114 24-05-2004 22:37:01 12.5 C 5.94 g/m*3 12.5 C 0 km/h
115 24-05-2004 22:49:01 12.6 C 6.2 g/m*3 12.6 C 0 km/h
116 24-05-2004 23:01:01 12.2 C 6.15 g/m*3 12.2 C 0 km/h
117 24-05-2004 23:13:01 12.1 C 6.22 g/m*3 12.1 C 0 km/h
118 24-05-2004 23:25:01 11.5 C 6.2 g/m*3 11.5 C 0 km/h
119 24-05-2004 23:37:01 11.2 C 6.18 g/m*3 11.2 C 0 km/h
120 24-05-2004 23:49:01 10.9 C 6.27 g/m*3 10.9 C 0 km/h
121 25-05-2004 00:01:01 10.6 C 6.15 g/m*3 10.6 C 0 km/h
122 25-05-2004 00:13:01 10.5 C 6.21 g/m*3 10.5 C 0 km/h
123 25-05-2004 00:25:01 10.4 C 6.26 g/m*3 10.4 C 0 km/h
124 25-05-2004 00:37:01 10.5 C 6.21 g/m*3 10.5 C 0 km/h
125 25-05-2004 00:49:01 10.5 C 6.21 g/m*3 10.5 C 0 km/h
Sensor: Nr:Datum:Temp:Abs-Feuchte:Windchill:Wind:
Aussen-T/F 126 25-05-2004 01:01:01 10.6 C 6.25 g/m*3 10.6 C 0 km/h
127 25-05-2004 01:13:01 10.8 C 6.13 g/m*3 10.8 C 0 km/h
128 25-05-2004 01:25:01 10.7 C 6.09 g/m*3 10.7 C 0 km/h
129 25-05-2004 01:37:01 10.6 C 6.25 g/m*3 10.6 C 0 km/h
130 25-05-2004 01:49:01 10.5 C 6.3 g/m*3 10.5 C 0 km/h
131 25-05-2004 02:01:01 10.5 C 6.3 g/m*3 10.5 C 0 km/h
132 25-05-2004 02:13:01 10.4 C 6.36 g/m*3 10.4 C 0 km/h
133 25-05-2004 02:25:01 10.2 C 6.28 g/m*3 10.2 C 0 km/h
134 25-05-2004 02:37:01 10 C 6.3 g/m*3 10 C 0 km/h
135 25-05-2004 02:50:03 9.9 C 6.44 g/m*3 9.9 C 0 km/h
136 25-05-2004 03:02:03 9.8 C 6.4 g/m*3 9.8 C 0 km/h
137 25-05-2004 03:14:03 9.7 C 6.45 g/m*3 9.7 C 0 km/h
138 25-05-2004 03:26:03 9.4 C 6.42 g/m*3 9.4 C 0 km/h
139 25-05-2004 03:38:01 9.2 C 6.34 g/m*3 9.2 C 0 km/h
140 25-05-2004 03:50:01 8.8 C 6.53 g/m*3 8.8 C 0 km/h
141 25-05-2004 04:02:01 8.6 C 6.53 g/m*3 8.6 C 0 km/h
142 25-05-2004 04:14:01 8.4 C 6.53 g/m*3 8.4 C 0 km/h
143 25-05-2004 04:26:01 8.2 C 6.45 g/m*3 8.2 C 0 km/h
144 25-05-2004 04:38:01 8 C 6.45 g/m*3 8 C 0 km/h
145 25-05-2004 04:50:01 7.8 C 6.45 g/m*3 7.8 C 0 km/h
146 25-05-2004 05:02:01 7.6 C 6.44 g/m*3 7.6 C 0 km/h
147 25-05-2004 05:14:01 7.5 C 6.48 g/m*3 7.5 C 0 km/h
148 25-05-2004 05:26:01 7.3 C 6.48 g/m*3 7.3 C 0 km/h
149 25-05-2004 05:38:01 7.1 C 6.47 g/m*3 7.1 C 0 km/h
150 25-05-2004 05:50:01 7 C 6.43 g/m*3 7 C 0 km/h
Sensor: Nr:Datum:Temp:Abs-Feuchte:Windchill:Wind:
Aussen-T/F 151 25-05-2004 06:02:01 7 C 6.51 g/m*3 7 C 0 km/h
152 25-05-2004 06:14:01 7 C 6.51 g/m*3 7 C 0 km/h
153 25-05-2004 06:26:00 7.1 C 6.47 g/m*3 7.1 C 0 km/h
154 25-05-2004 06:38:00 7 C 6.43 g/m*3 7 C 0 km/h
155 25-05-2004 06:50:01 7.1 C 6.47 g/m*3 7.1 C 0 km/h
156 25-05-2004 07:02:01 7.2 C 6.44 g/m*3 7.2 C 0 km/h
157 25-05-2004 07:14:01 7.6 C 6.53 g/m*3 7.6 C 0 km/h
158 25-05-2004 07:26:00 7.9 C 6.49 g/m*3 7.9 C 0 km/h
159 25-05-2004 07:38:00 8.2 C 6.53 g/m*3 8.2 C 0 km/h
160 25-05-2004 07:50:01 8.4 C 6.53 g/m*3 8.4 C 0 km/h
161 25-05-2004 08:02:01 8.6 C 6.62 g/m*3 8.6 C 0 km/h
162 25-05-2004 08:14:01 8.8 C 6.61 g/m*3 8.8 C 0 km/h
163 25-05-2004 08:26:01 9.6 C 6.5 g/m*3 9.6 C 0 km/h
164 25-05-2004 08:38:01 10.2 C 6.57 g/m*3 10.2 C 0 km/h
165 25-05-2004 08:50:01 11 C 6.61 g/m*3 11 C 0 km/h
166 25-05-2004 09:02:01 11.4 C 6.57 g/m*3 11.4 C 0 km/h
167 25-05-2004 09:14:01 11.4 C 6.47 g/m*3 11.4 C 0 km/h
168 25-05-2004 09:26:01 11.6 C 6.76 g/m*3 11.6 C 0 km/h
169 25-05-2004 09:38:01 12.3 C 6.73 g/m*3 12.3 C 0 km/h
170 25-05-2004 09:50:01 12.8 C 6.61 g/m*3 12.8 C 0 km/h
171 25-05-2004 10:02:01 12.4 C 6.66 g/m*3 12.4 C 0 km/h
172 25-05-2004 10:14:01 12.3 C 6.19 g/m*3 12.3 C 0 km/h
173 25-05-2004 10:26:01 12.8 C 6.5 g/m*3 12.8 C 0 km/h
174 25-05-2004 10:38:01 14.2 C 6.35 g/m*3 14.2 C 0 km/h
175 25-05-2004 10:50:01 13.5 C 6.32 g/m*3 13.5 C 0 km/h
Sensor: Nr:Datum:Temp:Abs-Feuchte:Windchill:Wind:
Aussen-T/F 176 25-05-2004 11:02:01 15.1 C 6.58 g/m*3 15.1 C 0 km/h
177 25-05-2004 11:14:01 15.3 C 6.14 g/m*3 15.3 C 0 km/h
178 25-05-2004 11:26:01 15.1 C 6.19 g/m*3 15.1 C 0 km/h
179 25-05-2004 11:38:01 15.4 C 6.31 g/m*3 15.4 C 0 km/h
180 25-05-2004 11:50:01 16 C 6.13 g/m*3 16 C 0 km/h
181 25-05-2004 12:02:01 17 C 6.37 g/m*3 17 C 0 km/h
182 25-05-2004 12:14:01 17.2 C 5.71 g/m*3 17.2 C 0 km/h
183 25-05-2004 12:26:01 17 C 5.79 g/m*3 17 C 0 km/h
184 25-05-2004 12:38:01 18.3 C 5.79 g/m*3 18.3 C 0 km/h
185 25-05-2004 12:50:01 19.1 C 5.74 g/m*3 19.1 C 0 km/h
186 25-05-2004 13:02:01 19.7 C 5.6 g/m*3 19.7 C 0 km/h
187 25-05-2004 13:14:01 20.8 C 5.61 g/m*3 20.8 C 0 km/h
188 25-05-2004 13:26:01 21.1 C 4.97 g/m*3 21.1 C 0 km/h
189 25-05-2004 13:38:01 21.1 C 4.97 g/m*3 21.1 C 0 km/h
190 25-05-2004 13:50:01 20.4 C 5.13 g/m*3 20.4 C 0 km/h
191 25-05-2004 14:02:01 20.9 C 5.65 g/m*3 20.9 C 0 km/h
192 25-05-2004 14:14:01 20.9 C 5.65 g/m*3 20.9 C 0 km/h
193 25-05-2004 14:26:01 21.2 C 4.82 g/m*3 21.2 C 0 km/h
194 25-05-2004 14:38:01 21.1 C 4.79 g/m*3 21.1 C 0 km/h
195 25-05-2004 14:50:01 21.6 C 4.74 g/m*3 21.6 C 0 km/h
196 25-05-2004 15:02:01 22.1 C 4.68 g/m*3 22.1 C 0 km/h
197 25-05-2004 15:14:01 21.8 C 4.99 g/m*3 21.8 C 0 km/h
198 25-05-2004 15:26:01 23.2 C 4.78 g/m*3 23.2 C 0 km/h
199 25-05-2004 15:38:01 23.5 C 4.86 g/m*3 23.5 C 0 km/h
200 25-05-2004 15:50:01 23 C 4.93 g/m*3 23 C 0 km/h
Sensor: Nr:Datum:Temp:Abs-Feuchte:Windchill:Wind:
Aussen-T/F 201 25-05-2004 16:02:01 21.6 C 5.31 g/m*3 21.6 C 0 km/h
202 25-05-2004 16:14:01 23 C 5.34 g/m*3 23 C 0 km/h
203 25-05-2004 16:26:01 24.1 C 5.69 g/m*3 24.1 C 0 km/h
204 25-05-2004 16:38:01 24.3 C 5.31 g/m*3 24.3 C 0 km/h
205 25-05-2004 16:50:01 23.6 C 5.32 g/m*3 23.6 C 0 km/h
206 25-05-2004 17:02:01 22.9 C 5.52 g/m*3 22.9 C 0 km/h
207 25-05-2004 17:14:01 22.2 C 5.5 g/m*3 22.2 C 0 km/h
208 25-05-2004 17:26:02 22.7 C 5.66 g/m*3 22.7 C 0 km/h
209 25-05-2004 17:38:02 22.7 C 5.25 g/m*3 22.7 C 0 km/h
210 25-05-2004 17:50:01 20.9 C 5.65 g/m*3 20.9 C 0 km/h
211 25-05-2004 18:02:01 21.8 C 5.76 g/m*3 21.8 C 0 km/h
212 25-05-2004 18:14:01 21.9 C 5.79 g/m*3 21.9 C 0 km/h
213 25-05-2004 18:26:01 20.7 C 5.76 g/m*3 20.7 C 0 km/h
214 25-05-2004 18:38:01 20.8 C 5.98 g/m*3 20.8 C 0 km/h
215 25-05-2004 18:50:01 20.7 C 6.12 g/m*3 20.7 C 0 km/h
216 25-05-2004 19:02:01 20.4 C 6.01 g/m*3 20.4 C 0 km/h
217 25-05-2004 19:14:01 20.5 C 6.23 g/m*3 20.5 C 0 km/h
218 25-05-2004 19:26:01 20.5 C 5.69 g/m*3 20.5 C 0 km/h
219 25-05-2004 19:38:01 19.9 C 5.84 g/m*3 19.9 C 0 km/h
220 25-05-2004 19:50:01 19.6 C 6.08 g/m*3 19.6 C 0 km/h
221 25-05-2004 20:02:01 19.2 C 5.94 g/m*3 19.2 C 0 km/h
222 25-05-2004 20:14:01 18.8 C 5.8 g/m*3 18.8 C 0 km/h
223 25-05-2004 20:26:01 18.5 C 5.85 g/m*3 18.5 C 0 km/h
224 25-05-2004 20:38:01 18.3 C 6.72 g/m*3 18.3 C 0 km/h
225 25-05-2004 20:50:01 17.6 C 6.45 g/m*3 17.6 C 0 km/h
Sensor: Nr:Datum:Temp:Abs-Feuchte:Windchill:Wind:
Aussen-T/F 226 25-05-2004 21:02:01 16.8 C 6.43 g/m*3 16.8 C 0 km/h
227 25-05-2004 21:14:01 16.5 C 6.46 g/m*3 16.5 C 0 km/h
228 25-05-2004 21:26:01 16 C 6.4 g/m*3 16 C 0 km/h
229 25-05-2004 21:38:01 15.6 C 6.52 g/m*3 15.6 C 0 km/h
230 25-05-2004 21:50:01 15.7 C 6.56 g/m*3 15.7 C 0 km/h
231 25-05-2004 22:02:01 15.5 C 6.48 g/m*3 15.5 C 0 km/h
232 25-05-2004 22:14:01 15.2 C 6.49 g/m*3 15.2 C 0 km/h
233 25-05-2004 22:26:01 14.5 C 6.34 g/m*3 14.5 C 0 km/h
234 25-05-2004 22:38:01 14.1 C 6.31 g/m*3 14.1 C 0 km/h
235 25-05-2004 22:50:01 14 C 6.51 g/m*3 14 C 0 km/h
236 25-05-2004 23:02:01 14.1 C 6.55 g/m*3 14.1 C 0 km/h
237 25-05-2004 23:14:01 14 C 6.63 g/m*3 14 C 0 km/h
238 25-05-2004 23:26:01 13.9 C 6.83 g/m*3 13.9 C 0 km/h
239 25-05-2004 23:38:01 13.9 C 6.83 g/m*3 13.9 C 0 km/h
240 25-05-2004 23:50:01 13.7 C 6.87 g/m*3 13.7 C 0 km/h
241 26-05-2004 00:02:01 13.5 C 6.9 g/m*3 13.5 C 0 km/h
242 26-05-2004 00:14:01 13.3 C 6.7 g/m*3 13.3 C 0 km/h
243 26-05-2004 00:26:01 13 C 6.8 g/m*3 13 C 0 km/h
244 26-05-2004 00:38:01 12.8 C 6.83 g/m*3 12.8 C 0 km/h
245 26-05-2004 00:50:01 12.7 C 7.01 g/m*3 12.7 C 0 km/h
246 26-05-2004 01:02:01 12.8 C 7.06 g/m*3 12.8 C 0 km/h
247 26-05-2004 01:14:01 12.7 C 7.01 g/m*3 12.7 C 0 km/h
248 26-05-2004 01:26:01 12.6 C 7.08 g/m*3 12.6 C 0 km/h
249 26-05-2004 01:38:01 12.6 C 7.08 g/m*3 12.6 C 0 km/h
250 26-05-2004 01:50:01 12.6 C 7.19 g/m*3 12.6 C 0 km/h
Sensor: Nr:Datum:Temp:Abs-Feuchte:Windchill:Wind:
Aussen-T/F 251 26-05-2004 02:02:01 12.5 C 7.26 g/m*3 12.5 C 0 km/h
252 26-05-2004 02:14:01 12.4 C 7.21 g/m*3 12.4 C 0 km/h
253 26-05-2004 02:26:01 12.3 C 7.17 g/m*3 12.3 C 0 km/h
254 26-05-2004 02:38:01 12.2 C 7.12 g/m*3 12.2 C 0 km/h
255 26-05-2004 02:51:03 12.2 C 7.12 g/m*3 12.2 C 0 km/h
256 26-05-2004 03:03:03 12.1 C 7.29 g/m*3 12.1 C 0 km/h
257 26-05-2004 03:15:03 11.9 C 7.31 g/m*3 11.9 C 0 km/h
258 26-05-2004 03:27:03 11.7 C 7.22 g/m*3 11.7 C 0 km/h
259 26-05-2004 03:39:01 11.5 C 7.23 g/m*3 11.5 C 0 km/h
260 26-05-2004 03:51:01 11.4 C 7.19 g/m*3 11.4 C 0 km/h
261 26-05-2004 04:03:01 11.3 C 7.24 g/m*3 11.3 C 0 km/h
262 26-05-2004 04:15:01 11.2 C 7.2 g/m*3 11.2 C 0 km/h
263 26-05-2004 04:27:01 11.2 C 7.3 g/m*3 11.2 C 0 km/h
264 26-05-2004 04:39:01 11.1 C 7.25 g/m*3 11.1 C 0 km/h
265 26-05-2004 04:51:01 10.9 C 7.26 g/m*3 10.9 C 0 km/h
266 26-05-2004 05:03:01 11 C 7.31 g/m*3 11 C 0 km/h
267 26-05-2004 05:15:01 11 C 7.31 g/m*3 11 C 0 km/h
268 26-05-2004 05:27:01 10.9 C 7.26 g/m*3 10.9 C 0 km/h
269 26-05-2004 05:39:01 11 C 7.41 g/m*3 11 C 0 km/h
270 26-05-2004 05:51:01 11.1 C 7.35 g/m*3 11.1 C 0 km/h
271 26-05-2004 06:03:01 11.1 C 7.25 g/m*3 11.1 C 0 km/h
272 26-05-2004 06:15:01 11.2 C 7.4 g/m*3 11.2 C 0 km/h
273 26-05-2004 06:27:01 11.2 C 7.4 g/m*3 11.2 C 0 km/h
274 26-05-2004 06:39:01 11.2 C 7.3 g/m*3 11.2 C 0 km/h
275 26-05-2004 06:51:01 11.2 C 7.2 g/m*3 11.2 C 0 km/h
Sensor: Nr:Datum:Temp:Abs-Feuchte:Windchill:Wind:
Aussen-T/F 276 26-05-2004 07:03:01 11.3 C 7.24 g/m*3 11.3 C 0 km/h
277 26-05-2004 07:15:00 11.6 C 7.28 g/m*3 11.6 C 0 km/h
278 26-05-2004 07:27:00 11.4 C 7.08 g/m*3 11.4 C 0 km/h
279 26-05-2004 07:39:00 11.6 C 7.07 g/m*3 11.6 C 0 km/h
280 26-05-2004 07:51:01 11.8 C 7.05 g/m*3 11.8 C 0 km/h
281 26-05-2004 08:03:01 11.7 C 6.8 g/m*3 11.7 C 0 km/h
282 26-05-2004 08:15:01 11.5 C 6.71 g/m*3 11.5 C 0 km/h
283 26-05-2004 08:27:01 11.6 C 6.65 g/m*3 11.6 C 0 km/h
284 26-05-2004 08:39:00 11.8 C 6.74 g/m*3 11.8 C 0 km/h
285 26-05-2004 08:51:01 12.3 C 6.73 g/m*3 12.3 C 0 km/h
286 26-05-2004 09:03:01 12.8 C 6.72 g/m*3 12.8 C 0 km/h
287 26-05-2004 09:15:01 12.8 C 6.27 g/m*3 12.8 C 0 km/h
288 26-05-2004 09:27:01 12.7 C 6.12 g/m*3 12.7 C 0 km/h
289 26-05-2004 09:39:00 12.7 C 5.9 g/m*3 12.7 C 0 km/h
290 26-05-2004 09:51:01 13.2 C 5.74 g/m*3 13.2 C 0 km/h
291 26-05-2004 10:03:01 13.6 C 6.12 g/m*3 13.6 C 0 km/h
292 26-05-2004 10:15:01 14.2 C 5.86 g/m*3 14.2 C 0 km/h
293 26-05-2004 10:27:01 14.7 C 6.04 g/m*3 14.7 C 0 km/h
294 26-05-2004 10:39:01 14 C 5.79 g/m*3 14 C 0 km/h
295 26-05-2004 10:51:01 14.4 C 5.93 g/m*3 14.4 C 0 km/h
296 26-05-2004 11:03:01 14.9 C 5.99 g/m*3 14.9 C 0 km/h
297 26-05-2004 11:15:01 15.4 C 6.04 g/m*3 15.4 C 0 km/h
298 26-05-2004 11:27:01 15.9 C 5.69 g/m*3 15.9 C 0 km/h
299 26-05-2004 11:39:01 15.9 C 5.42 g/m*3 15.9 C 0 km/h
300 26-05-2004 11:51:01 16.1 C 5.21 g/m*3 16.1 C 0 km/h
Sensor: Nr:Datum:Temp:Abs-Feuchte:Windchill:Wind:
Aussen-T/F 301 26-05-2004 12:03:01 16.4 C 5.02 g/m*3 16.4 C 0 km/h
302 26-05-2004 12:15:01 16.6 C 4.94 g/m*3 16.6 C 0 km/h
303 26-05-2004 12:27:01 17.9 C 5.04 g/m*3 17.9 C 0 km/h
304 26-05-2004 12:39:01 18.5 C 4.75 g/m*3 18.5 C 0 km/h
305 26-05-2004 12:51:01 18.9 C 4.7 g/m*3 18.9 C 0 km/h
306 26-05-2004 13:03:01 18.6 C 4.62 g/m*3 18.6 C 0 km/h
307 26-05-2004 13:15:01 19.2 C 4.62 g/m*3 19.2 C 0 km/h
308 26-05-2004 13:27:01 19.6 C 4.73 g/m*3 19.6 C 0 km/h
309 26-05-2004 13:39:01 20 C 4.49 g/m*3 20 C 0 km/h
310 26-05-2004 13:51:01 19.1 C 4.59 g/m*3 19.1 C 0 km/h
311 26-05-2004 14:03:01 18.6 C 4.46 g/m*3 18.6 C 0 km/h
312 26-05-2004 14:15:01 19.1 C 4.43 g/m*3 19.1 C 0 km/h
313 26-05-2004 14:27:01 19 C 4.73 g/m*3 19 C 0 km/h
314 26-05-2004 14:39:01 18.8 C 4.67 g/m*3 18.8 C 0 km/h
315 26-05-2004 14:51:01 18.6 C 4.62 g/m*3 18.6 C 0 km/h
316 26-05-2004 15:03:01 19.3 C 4.98 g/m*3 19.3 C 0 km/h
317 26-05-2004 15:15:01 20 C 4.49 g/m*3 20 C 0 km/h
318 26-05-2004 15:27:01 19.5 C 4.7 g/m*3 19.5 C 0 km/h
319 26-05-2004 15:39:01 19.4 C 4.5 g/m*3 19.4 C 0 km/h
320 26-05-2004 15:51:01 19.2 C 4.62 g/m*3 19.2 C 0 km/h
321 26-05-2004 16:03:01 19.3 C 4.81 g/m*3 19.3 C 0 km/h
322 26-05-2004 16:15:01 19.5 C 4.87 g/m*3 19.5 C 0 km/h
323 26-05-2004 16:27:01 19.9 C 4.98 g/m*3 19.9 C 0 km/h
324 26-05-2004 16:39:01 20.6 C 5.19 g/m*3 20.6 C 0 km/h
325 26-05-2004 16:51:01 20.4 C 4.95 g/m*3 20.4 C 0 km/h
Sensor: Nr:Datum:Temp:Abs-Feuchte:Windchill:Wind:
Aussen-T/F 326 26-05-2004 17:03:01 20 C 4.67 g/m*3 20 C 0 km/h
327 26-05-2004 17:15:01 21.3 C 4.85 g/m*3 21.3 C 0 km/h
328 26-05-2004 17:27:01 20.7 C 4.68 g/m*3 20.7 C 0 km/h
329 26-05-2004 17:39:01 20.4 C 4.42 g/m*3 20.4 C 0 km/h
330 26-05-2004 17:51:01 19.3 C 4.48 g/m*3 19.3 C 0 km/h
331 26-05-2004 18:03:01 19.5 C 4.53 g/m*3 19.5 C 0 km/h
332 26-05-2004 18:15:01 20.4 C 4.6 g/m*3 20.4 C 0 km/h
333 26-05-2004 18:27:01 20.1 C 4.69 g/m*3 20.1 C 0 km/h
334 26-05-2004 18:39:01 20.5 C 4.8 g/m*3 20.5 C 0 km/h
335 26-05-2004 18:51:01 21 C 4.58 g/m*3 21 C 0 km/h
336 26-05-2004 19:03:01 19.6 C 4.56 g/m*3 19.6 C 0 km/h
337 26-05-2004 19:15:01 19.4 C 4.5 g/m*3 19.4 C 0 km/h
338 26-05-2004 19:27:01 19.2 C 4.45 g/m*3 19.2 C 0 km/h
339 26-05-2004 19:39:01 18.8 C 4.51 g/m*3 18.8 C 0 km/h
340 26-05-2004 19:51:01 18.7 C 4.48 g/m*3 18.7 C 0 km/h
341 26-05-2004 20:03:01 17.8 C 4.55 g/m*3 17.8 C 0 km/h
342 26-05-2004 20:15:01 18 C 4.45 g/m*3 18 C 0 km/h
343 26-05-2004 20:27:01 17.8 C 4.55 g/m*3 17.8 C 0 km/h
344 26-05-2004 20:39:01 17.3 C 4.42 g/m*3 17.3 C 0 km/h
345 26-05-2004 20:51:01 16.4 C 4.61 g/m*3 16.4 C 0 km/h
346 26-05-2004 21:03:01 15.9 C 4.74 g/m*3 15.9 C 0 km/h
347 26-05-2004 21:15:01 15.4 C 4.99 g/m*3 15.4 C 0 km/h
348 26-05-2004 21:27:01 14.8 C 4.94 g/m*3 14.8 C 0 km/h
349 26-05-2004 21:39:01 14.2 C 4.88 g/m*3 14.2 C 0 km/h
350 26-05-2004 21:51:01 13.6 C 4.94 g/m*3 13.6 C 0 km/h
Sensor: Nr:Datum:Temp:Abs-Feuchte:Windchill:Wind:
Aussen-T/F 351 26-05-2004 22:03:01 13 C 4.88 g/m*3 13 C 0 km/h
352 26-05-2004 22:15:01 12.2 C 4.86 g/m*3 12.2 C 0 km/h
353 26-05-2004 22:27:01 11.8 C 5.05 g/m*3 11.8 C 0 km/h
354 26-05-2004 22:39:01 11.9 C 5.08 g/m*3 11.9 C 0 km/h
355 26-05-2004 22:51:01 11.7 C 5.12 g/m*3 11.7 C 0 km/h
356 26-05-2004 23:03:01 11.4 C 5.13 g/m*3 11.4 C 0 km/h
357 26-05-2004 23:15:01 11.2 C 5.17 g/m*3 11.2 C 0 km/h
358 26-05-2004 23:27:01 10.9 C 5.37 g/m*3 10.9 C 0 km/h
359 26-05-2004 23:39:01 10.7 C 5.4 g/m*3 10.7 C 0 km/h
360 26-05-2004 23:51:01 10.5 C 5.24 g/m*3 10.5 C 0 km/h
361 27-05-2004 00:03:01 10.2 C 5.33 g/m*3 10.2 C 0 km/h
362 27-05-2004 00:15:01 10 C 5.26 g/m*3 10 C 0 km/h
363 27-05-2004 00:27:01 9.7 C 5.35 g/m*3 9.7 C 0 km/h
364 27-05-2004 00:39:01 9.5 C 5.28 g/m*3 9.5 C 0 km/h
365 27-05-2004 00:51:01 9.1 C 5.23 g/m*3 9.1 C 0 km/h
366 27-05-2004 01:03:01 8.9 C 5.34 g/m*3 8.9 C 0 km/h
367 27-05-2004 01:15:01 8.8 C 5.31 g/m*3 8.8 C 0 km/h
368 27-05-2004 01:27:01 8.5 C 5.29 g/m*3 8.5 C 0 km/h
369 27-05-2004 01:39:01 8.2 C 5.28 g/m*3 8.2 C 0 km/h
370 27-05-2004 01:51:01 8 C 5.29 g/m*3 8 C 0 km/h
371 27-05-2004 02:03:01 7.7 C 5.35 g/m*3 7.7 C 0 km/h
372 27-05-2004 02:15:01 7.5 C 5.36 g/m*3 7.5 C 0 km/h
373 27-05-2004 02:27:01 7.3 C 5.29 g/m*3 7.3 C 0 km/h
374 27-05-2004 02:39:01 6.9 C 5.39 g/m*3 6.9 C 0 km/h
375 27-05-2004 02:52:02 6.7 C 5.47 g/m*3 6.7 C 0 km/h
Sensor: Nr:Datum:Temp:Abs-Feuchte:Windchill:Wind:
Aussen-T/F 376 27-05-2004 03:04:02 6.7 C 5.39 g/m*3 6.7 C 0 km/h
377 27-05-2004 03:16:02 6.7 C 5.39 g/m*3 6.7 C 0 km/h
378 27-05-2004 03:28:02 6.7 C 5.47 g/m*3 6.7 C 0 km/h
379 27-05-2004 03:40:01 6.5 C 5.32 g/m*3 6.5 C 0 km/h
380 27-05-2004 03:52:01 6.3 C 5.33 g/m*3 6.3 C 0 km/h
381 27-05-2004 04:04:01 6 C 5.37 g/m*3 6 C 0 km/h
382 27-05-2004 04:16:01 5.8 C 5.44 g/m*3 5.8 C 0 km/h
383 27-05-2004 04:28:01 5.4 C 5.37 g/m*3 5.4 C 0 km/h
384 27-05-2004 04:40:01 5.4 C 5.37 g/m*3 5.4 C 0 km/h
385 27-05-2004 04:52:01 5.2 C 5.37 g/m*3 5.2 C 0 km/h
386 27-05-2004 05:04:01 5.1 C 5.4 g/m*3 5.1 C 0 km/h
387 27-05-2004 05:16:01 4.9 C 5.47 g/m*3 4.9 C 0 km/h
388 27-05-2004 05:28:01 4.8 C 5.43 g/m*3 4.8 C 0 km/h
389 27-05-2004 05:40:01 4.8 C 5.43 g/m*3 4.8 C 0 km/h
390 27-05-2004 05:52:01 4.6 C 5.43 g/m*3 4.6 C 0 km/h
391 27-05-2004 06:04:01 4.7 C 5.53 g/m*3 4.7 C 0 km/h
392 27-05-2004 06:16:01 4.8 C 5.5 g/m*3 4.8 C 0 km/h
393 27-05-2004 06:28:01 4.8 C 5.5 g/m*3 4.8 C 0 km/h
394 27-05-2004 06:40:01 5.1 C 5.54 g/m*3 5.1 C 0 km/h
395 27-05-2004 06:52:01 5.2 C 5.58 g/m*3 5.2 C 0 km/h
396 27-05-2004 07:04:01 5.3 C 5.61 g/m*3 5.3 C 0 km/h
397 27-05-2004 07:16:01 5.5 C 5.69 g/m*3 5.5 C 0 km/h
398 27-05-2004 07:28:01 5.7 C 5.62 g/m*3 5.7 C 0 km/h
399 27-05-2004 07:40:01 5.9 C 5.7 g/m*3 5.9 C 0 km/h
400 27-05-2004 07:52:01 6.4 C 5.66 g/m*3 6.4 C 0 km/h
Sensor: Nr:Datum:Temp:Abs-Feuchte:Windchill:Wind:
Aussen-T/F 401 27-05-2004 08:04:01 7 C 5.66 g/m*3 7 C 0 km/h
402 27-05-2004 08:16:01 7.5 C 5.68 g/m*3 7.5 C 0 km/h
403 27-05-2004 08:28:01 7.8 C 5.71 g/m*3 7.8 C 0 km/h
404 27-05-2004 08:40:01 8.1 C 5.66 g/m*3 8.1 C 0 km/h
405 27-05-2004 08:52:01 9 C 5.91 g/m*3 9 C 0 km/h
406 27-05-2004 09:04:01 10.1 C 5.96 g/m*3 10.1 C 0 km/h
407 27-05-2004 09:16:01 10.8 C 5.83 g/m*3 10.8 C 0 km/h
408 27-05-2004 09:28:01 11.6 C 5.92 g/m*3 11.6 C 0 km/h
409 27-05-2004 09:40:01 11.8 C 6 g/m*3 11.8 C 0 km/h
410 27-05-2004 09:52:01 12.8 C 6.05 g/m*3 12.8 C 0 km/h
411 27-05-2004 10:04:01 13.1 C 5.59 g/m*3 13.1 C 0 km/h
412 27-05-2004 10:16:02 14.2 C 5.62 g/m*3 14.2 C 0 km/h
413 27-05-2004 10:28:02 14.4 C 5.81 g/m*3 14.4 C 0 km/h
414 27-05-2004 10:40:02 15.2 C 5.84 g/m*3 15.2 C 0 km/h
415 27-05-2004 10:52:02 16.3 C 5.83 g/m*3 16.3 C 0 km/h
416 27-05-2004 11:04:02 16 C 5.31 g/m*3 16 C 0 km/h
417 27-05-2004 11:16:02 15.6 C 5.45 g/m*3 15.6 C 0 km/h
418 27-05-2004 11:28:02 16.6 C 5.51 g/m*3 16.6 C 0 km/h
419 27-05-2004 11:40:02 18.4 C 5.03 g/m*3 18.4 C 0 km/h
420 27-05-2004 11:52:01 17.4 C 4 g/m*3 17.4 C 0 km/h
421 27-05-2004 12:04:01 16.9 C 4.75 g/m*3 16.9 C 0 km/h
422 27-05-2004 12:16:01 16.8 C 4.58 g/m*3 16.8 C 0 km/h
423 27-05-2004 12:28:01 17.2 C 4.83 g/m*3 17.2 C 0 km/h
424 27-05-2004 12:40:01 17.1 C 4.51 g/m*3 17.1 C 0 km/h
425 27-05-2004 12:52:01 18.3 C 5 g/m*3 18.3 C 0 km/h
Sensor: Nr:Datum:Temp:Abs-Feuchte:Windchill:Wind:
Aussen-T/F 426 27-05-2004 13:04:01 19.4 C 4.5 g/m*3 19.4 C 0 km/h
427 27-05-2004 13:16:01 19.3 C 4.31 g/m*3 19.3 C 0 km/h
428 27-05-2004 13:28:01 19.6 C 4.22 g/m*3 19.6 C 0 km/h
429 27-05-2004 13:40:01 19.1 C 4.43 g/m*3 19.1 C 0 km/h
430 27-05-2004 13:52:01 20.5 C 4.63 g/m*3 20.5 C 0 km/h
431 27-05-2004 14:04:01 20.6 C 4.83 g/m*3 20.6 C 0 km/h
432 27-05-2004 14:16:01 18.9 C 4.21 g/m*3 18.9 C 0 km/h
433 27-05-2004 14:28:01 18.5 C 4.43 g/m*3 18.5 C 0 km/h
434 27-05-2004 14:40:01 18.2 C 4.66 g/m*3 18.2 C 0 km/h
435 27-05-2004 14:52:01 18.7 C 4.64 g/m*3 18.7 C 0 km/h
436 27-05-2004 15:04:01 18.7 C 4.48 g/m*3 18.7 C 0 km/h
437 27-05-2004 15:16:01 19.8 C 4.61 g/m*3 19.8 C 0 km/h
438 27-05-2004 15:28:01 19.3 C 4.31 g/m*3 19.3 C 0 km/h
439 27-05-2004 15:40:01 19.8 C 5.12 g/m*3 19.8 C 0 km/h
440 27-05-2004 15:52:01 20 C 4.49 g/m*3 20 C 0 km/h
441 27-05-2004 16:04:01 20.7 C 4.86 g/m*3 20.7 C 0 km/h
442 27-05-2004 16:16:01 20.3 C 4.75 g/m*3 20.3 C 0 km/h
443 27-05-2004 16:28:01 19.4 C 4.67 g/m*3 19.4 C 0 km/h
444 27-05-2004 16:40:01 21.3 C 4.66 g/m*3 21.3 C 0 km/h
445 27-05-2004 16:52:01 21.2 C 4.63 g/m*3 21.2 C 0 km/h
446 27-05-2004 17:04:01 20.8 C 4.71 g/m*3 20.8 C 0 km/h
447 27-05-2004 17:16:01 21.6 C 4.36 g/m*3 21.6 C 0 km/h
448 27-05-2004 17:28:01 21.4 C 4.5 g/m*3 21.4 C 0 km/h
449 27-05-2004 17:40:01 20.9 C 4.74 g/m*3 20.9 C 0 km/h
450 27-05-2004 17:52:01 21.1 C 4.05 g/m*3 21.1 C 0 km/h
Sensor: Nr:Datum:Temp:Abs-Feuchte:Windchill:Wind:
Aussen-T/F 451 27-05-2004 18:04:01 20.2 C 4.02 g/m*3 20.2 C 0 km/h
452 27-05-2004 18:16:01 20.2 C 4.02 g/m*3 20.2 C 0 km/h
453 27-05-2004 18:28:01 19 C 4.24 g/m*3 19 C 0 km/h
454 27-05-2004 18:40:01 18.1 C 4.17 g/m*3 18.1 C 0 km/h
455 27-05-2004 18:52:01 17.9 C 4.43 g/m*3 17.9 C 0 km/h
456 27-05-2004 19:04:01 17.8 C 4.55 g/m*3 17.8 C 0 km/h
457 27-05-2004 19:16:01 17.2 C 4.83 g/m*3 17.2 C 0 km/h
458 27-05-2004 19:28:01 16.9 C 4.46 g/m*3 16.9 C 0 km/h
459 27-05-2004 19:40:01 16.5 C 4.63 g/m*3 16.5 C 0 km/h
460 27-05-2004 19:52:01 16.3 C 4.86 g/m*3 16.3 C 0 km/h
461 27-05-2004 20:04:01 16.8 C 4.86 g/m*3 16.8 C 0 km/h
462 27-05-2004 20:16:01 16.9 C 4.6 g/m*3 16.9 C 0 km/h
463 27-05-2004 20:28:01 16.5 C 4.91 g/m*3 16.5 C 0 km/h
464 27-05-2004 20:40:02 15.8 C 4.85 g/m*3 15.8 C 0 km/h
465 27-05-2004 20:52:01 15.2 C 4.8 g/m*3 15.2 C 0 km/h
466 27-05-2004 21:04:01 14.8 C 5.32 g/m*3 14.8 C 0 km/h
467 27-05-2004 21:16:01 13.9 C 5.39 g/m*3 13.9 C 0 km/h
468 27-05-2004 21:28:02 13.1 C 5.25 g/m*3 13.1 C 0 km/h
469 27-05-2004 21:40:01 12.6 C 5.2 g/m*3 12.6 C 0 km/h
470 27-05-2004 21:52:01 12 C 5.12 g/m*3 12 C 0 km/h
471 27-05-2004 22:04:01 11.4 C 5.13 g/m*3 11.4 C 0 km/h
472 27-05-2004 22:16:01 11.1 C 5.24 g/m*3 11.1 C 0 km/h
473 27-05-2004 22:28:01 10.8 C 5.14 g/m*3 10.8 C 0 km/h
474 27-05-2004 22:40:01 10.9 C 5.57 g/m*3 10.9 C 0 km/h
475 27-05-2004 22:53:01 10.5 C 5.24 g/m*3 10.5 C 0 km/h
Sensor: Nr:Datum:Temp:Abs-Feuchte:Windchill:Wind:
Aussen-T/F 476 27-05-2004 23:05:01 10.4 C 5.3 g/m*3 10.4 C 0 km/h
477 27-05-2004 23:17:01 10.4 C 5.4 g/m*3 10.4 C 0 km/h
478 27-05-2004 23:29:02 10.2 C 5.42 g/m*3 10.2 C 0 km/h
479 27-05-2004 23:41:02 9.8 C 5.47 g/m*3 9.8 C 0 km/h
480 27-05-2004 23:53:02 9.7 C 5.53 g/m*3 9.7 C 0 km/h
481 28-05-2004 00:05:02 9.6 C 5.68 g/m*3 9.6 C 0 km/h
482 28-05-2004 00:17:02 9.4 C 5.52 g/m*3 9.4 C 0 km/h
483 28-05-2004 00:29:02 9.2 C 5.71 g/m*3 9.2 C 0 km/h
484 28-05-2004 00:41:03 8.9 C 5.69 g/m*3 8.9 C 0 km/h
485 28-05-2004 00:53:03 8.7 C 5.71 g/m*3 8.7 C 0 km/h
486 28-05-2004 01:05:03 8.7 C 5.71 g/m*3 8.7 C 0 km/h
487 28-05-2004 01:17:03 8.4 C 5.77 g/m*3 8.4 C 0 km/h
488 28-05-2004 01:29:03 8.2 C 5.78 g/m*3 8.2 C 0 km/h
489 28-05-2004 01:41:03 7.8 C 5.79 g/m*3 7.8 C 0 km/h
490 28-05-2004 01:53:04 7.8 C 5.88 g/m*3 7.8 C 0 km/h
491 28-05-2004 02:05:04 7.8 C 5.88 g/m*3 7.8 C 0 km/h
492 28-05-2004 02:17:04 7.8 C 5.79 g/m*3 7.8 C 0 km/h
493 28-05-2004 02:29:04 7.5 C 5.76 g/m*3 7.5 C 0 km/h
494 28-05-2004 02:41:04 7.3 C 5.69 g/m*3 7.3 C 0 km/h
495 28-05-2004 02:53:04 7 C 5.73 g/m*3 7 C 0 km/h
496 28-05-2004 03:05:05 6.4 C 5.81 g/m*3 6.4 C 0 km/h
497 28-05-2004 03:17:05 6.3 C 5.85 g/m*3 6.3 C 0 km/h
498 28-05-2004 03:29:05 6.1 C 5.77 g/m*3 6.1 C 0 km/h
499 28-05-2004 03:41:05 6.1 C 5.84 g/m*3 6.1 C 0 km/h
500 28-05-2004 03:53:05 6 C 5.81 g/m*3 6 C 0 km/h
Sensor: Nr:Datum:Temp:Abs-Feuchte:Windchill:Wind:
Aussen-T/F 501 28-05-2004 04:05:05 6 C 5.81 g/m*3 6 C 0 km/h
502 28-05-2004 04:17:06 5.9 C 5.84 g/m*3 5.9 C 0 km/h
503 28-05-2004 04:29:06 5.8 C 5.87 g/m*3 5.8 C 0 km/h
504 28-05-2004 04:41:06 5.6 C 5.8 g/m*3 5.6 C 0 km/h
505 28-05-2004 04:53:06 5.4 C 5.79 g/m*3 5.4 C 0 km/h
506 28-05-2004 05:05:06 5.3 C 5.82 g/m*3 5.3 C 0 km/h
507 28-05-2004 05:17:06 5.1 C 5.75 g/m*3 5.1 C 0 km/h
508 28-05-2004 05:29:07 4.9 C 5.81 g/m*3 4.9 C 0 km/h
509 28-05-2004 05:41:07 4.9 C 5.81 g/m*3 4.9 C 0 km/h
510 28-05-2004 05:53:07 5 C 5.78 g/m*3 5 C 0 km/h
511 28-05-2004 06:05:07 5.1 C 5.81 g/m*3 5.1 C 0 km/h
512 28-05-2004 06:17:07 5.1 C 5.81 g/m*3 5.1 C 0 km/h
513 28-05-2004 06:29:07 5 C 5.78 g/m*3 5 C 0 km/h
514 28-05-2004 06:41:01 5.1 C 5.95 g/m*3 5.1 C 0 km/h
515 28-05-2004 06:53:02 5.2 C 5.99 g/m*3 5.2 C 0 km/h
516 28-05-2004 07:05:01 5.4 C 6.07 g/m*3 5.4 C 0 km/h
517 28-05-2004 07:17:01 5.7 C 6.12 g/m*3 5.7 C 0 km/h
518 28-05-2004 07:29:01 5.9 C 6.06 g/m*3 5.9 C 0 km/h
519 28-05-2004 07:41:01 6.1 C 6.06 g/m*3 6.1 C 0 km/h
520 28-05-2004 07:53:02 6.3 C 6.07 g/m*3 6.3 C 0 km/h
521 28-05-2004 08:05:02 6.6 C 6.19 g/m*3 6.6 C 0 km/h
522 28-05-2004 08:17:02 6.9 C 6.24 g/m*3 6.9 C 0 km/h
523 28-05-2004 08:29:02 7.2 C 6.2 g/m*3 7.2 C 0 km/h
524 28-05-2004 08:41:01 7.8 C 6.45 g/m*3 7.8 C 0 km/h
525 28-05-2004 08:53:04 8.4 C 6.45 g/m*3 8.4 C 0 km/h
Sensor: Nr:Datum:Temp:Abs-Feuchte:Windchill:Wind:
Aussen-T/F 526 28-05-2004 09:05:04 9.1 C 6.48 g/m*3 9.1 C 0 km/h
527 28-05-2004 09:17:03 9.7 C 6.64 g/m*3 9.7 C 0 km/h
528 28-05-2004 09:29:03 10.7 C 6.68 g/m*3 10.7 C 0 km/h
529 28-05-2004 09:41:03 11.5 C 6.71 g/m*3 11.5 C 0 km/h
530 28-05-2004 09:53:05 12.2 C 6.58 g/m*3 12.2 C 0 km/h
531 28-05-2004 10:05:04 12.9 C 6.76 g/m*3 12.9 C 0 km/h
532 28-05-2004 10:17:07 13.7 C 6.63 g/m*3 13.7 C 0 km/h
533 28-05-2004 10:29:07 14.3 C 6.63 g/m*3 14.3 C 0 km/h
534 28-05-2004 10:41:03 14.8 C 6.59 g/m*3 14.8 C 0 km/h
535 28-05-2004 10:53:01 15 C 6.28 g/m*3 15 C 0 km/h
536 28-05-2004 11:05:01 15.4 C 6.18 g/m*3 15.4 C 0 km/h
537 28-05-2004 11:17:01 16 C 5.99 g/m*3 16 C 0 km/h
538 28-05-2004 11:29:01 15.8 C 5.79 g/m*3 15.8 C 0 km/h
539 28-05-2004 11:41:01 17.3 C 6.63 g/m*3 17.3 C 0 km/h
540 28-05-2004 11:53:01 17.2 C 5.86 g/m*3 17.2 C 0 km/h
541 28-05-2004 12:05:01 17.8 C 5.77 g/m*3 17.8 C 0 km/h
542 28-05-2004 12:17:01 18.5 C 5.7 g/m*3 18.5 C 0 km/h
543 28-05-2004 12:29:01 20.2 C 6.12 g/m*3 20.2 C 0 km/h
544 28-05-2004 12:41:01 19 C 5.7 g/m*3 19 C 0 km/h
545 28-05-2004 12:53:01 18.1 C 5.56 g/m*3 18.1 C 0 km/h
546 28-05-2004 13:05:01 19.5 C 5.2 g/m*3 19.5 C 0 km/h
547 28-05-2004 13:17:01 19.5 C 5.37 g/m*3 19.5 C 0 km/h
548 28-05-2004 13:29:01 19.7 C 5.43 g/m*3 19.7 C 0 km/h
549 28-05-2004 13:41:01 19.7 C 4.92 g/m*3 19.7 C 0 km/h
550 28-05-2004 13:53:01 20.1 C 4.87 g/m*3 20.1 C 0 km/h
Sensor: Nr:Datum:Temp:Abs-Feuchte:Windchill:Wind:
Aussen-T/F 551 28-05-2004 14:05:01 20.4 C 4.6 g/m*3 20.4 C 0 km/h
552 28-05-2004 14:17:01 19.9 C 5.15 g/m*3 19.9 C 0 km/h
553 28-05-2004 14:29:01 21.2 C 4.63 g/m*3 21.2 C 0 km/h
554 28-05-2004 14:41:01 20.3 C 5.28 g/m*3 20.3 C 0 km/h
555 28-05-2004 14:53:01 19.6 C 4.9 g/m*3 19.6 C 0 km/h
556 28-05-2004 15:05:01 20.6 C 4.83 g/m*3 20.6 C 0 km/h
557 28-05-2004 15:17:01 21.2 C 4.82 g/m*3 21.2 C 0 km/h
558 28-05-2004 15:29:01 22.5 C 4.39 g/m*3 22.5 C 0 km/h
559 28-05-2004 15:41:01 22.9 C 4.5 g/m*3 22.9 C 0 km/h
560 28-05-2004 15:53:01 22.3 C 4.54 g/m*3 22.3 C 0 km/h
561 28-05-2004 16:05:01 22 C 4.46 g/m*3 22 C 0 km/h
562 28-05-2004 16:17:01 23.1 C 4.13 g/m*3 23.1 C 0 km/h
563 28-05-2004 16:29:01 22.7 C 4.04 g/m*3 22.7 C 0 km/h
564 28-05-2004 16:41:01 22.5 C 3.99 g/m*3 22.5 C 0 km/h
565 28-05-2004 16:53:01 22.2 C 4.32 g/m*3 22.2 C 0 km/h
566 28-05-2004 17:05:01 22 C 4.66 g/m*3 22 C 0 km/h
567 28-05-2004 17:17:01 21.4 C 4.87 g/m*3 21.4 C 0 km/h
568 28-05-2004 17:29:02 20.9 C 5.46 g/m*3 20.9 C 0 km/h
569 28-05-2004 17:41:01 21.4 C 4.87 g/m*3 21.4 C 0 km/h
570 28-05-2004 17:53:01 23.4 C 5.05 g/m*3 23.4 C 0 km/h
571 28-05-2004 18:05:01 22.7 C 4.85 g/m*3 22.7 C 0 km/h
572 28-05-2004 18:17:01 21.6 C 4.93 g/m*3 21.6 C 0 km/h
573 28-05-2004 18:29:01 22.2 C 4.91 g/m*3 22.2 C 0 km/h
574 28-05-2004 18:41:01 23.5 C 4.44 g/m*3 23.5 C 0 km/h
575 28-05-2004 18:53:01 23.1 C 4.55 g/m*3 23.1 C 0 km/h
Sensor: Nr:Datum:Temp:Abs-Feuchte:Windchill:Wind:
Aussen-T/F 576 28-05-2004 19:05:01 21.6 C 4.74 g/m*3 21.6 C 0 km/h
577 28-05-2004 19:17:01 21.1 C 5.16 g/m*3 21.1 C 0 km/h
578 28-05-2004 19:29:01 21.9 C 6.18 g/m*3 21.9 C 0 km/h
579 28-05-2004 19:41:01 22.8 C 5.28 g/m*3 22.8 C 0 km/h
580 28-05-2004 19:53:01 22.9 C 5.31 g/m*3 22.9 C 0 km/h
581 28-05-2004 20:05:01 22.8 C 5.08 g/m*3 22.8 C 0 km/h
582 28-05-2004 20:17:01 22.4 C 4.96 g/m*3 22.4 C 0 km/h
583 28-05-2004 20:29:01 21.7 C 5.91 g/m*3 21.7 C 0 km/h
584 28-05-2004 20:41:01 20.6 C 6.26 g/m*3 20.6 C 0 km/h
585 28-05-2004 20:53:01 19.5 C 5.87 g/m*3 19.5 C 0 km/h
586 28-05-2004 21:05:01 18.1 C 5.87 g/m*3 18.1 C 0 km/h
587 28-05-2004 21:17:01 17.1 C 5.82 g/m*3 17.1 C 0 km/h
588 28-05-2004 21:29:01 16.3 C 5.69 g/m*3 16.3 C 0 km/h
589 28-05-2004 21:41:01 15.1 C 5.55 g/m*3 15.1 C 0 km/h
590 28-05-2004 21:53:01 14.9 C 5.86 g/m*3 14.9 C 0 km/h
591 28-05-2004 22:05:01 14.6 C 5.88 g/m*3 14.6 C 0 km/h
592 28-05-2004 22:17:01 14.4 C 5.93 g/m*3 14.4 C 0 km/h
593 28-05-2004 22:29:01 14.2 C 5.98 g/m*3 14.2 C 0 km/h
594 28-05-2004 22:41:01 13.9 C 6.11 g/m*3 13.9 C 0 km/h
595 28-05-2004 22:53:01 13.5 C 6.08 g/m*3 13.5 C 0 km/h
596 28-05-2004 23:05:01 13.1 C 6.05 g/m*3 13.1 C 0 km/h
597 28-05-2004 23:17:01 13 C 6.12 g/m*3 13 C 0 km/h
598 28-05-2004 23:29:01 12.8 C 6.27 g/m*3 12.8 C 0 km/h
599 28-05-2004 23:41:01 12.4 C 6.12 g/m*3 12.4 C 0 km/h
600 28-05-2004 23:53:01 12.1 C 6.11 g/m*3 12.1 C 0 km/h
Sensor: Nr:Datum:Temp:Abs-Feuchte:Windchill:Wind:
Aussen-T/F 601 29-05-2004 00:05:01 11.7 C 6.17 g/m*3 11.7 C 0 km/h
602 29-05-2004 00:17:00 11.5 C 6.3 g/m*3 11.5 C 0 km/h
603 29-05-2004 00:29:00 11.1 C 6.25 g/m*3 11.1 C 0 km/h
604 29-05-2004 00:41:00 11 C 6.21 g/m*3 11 C 0 km/h
605 29-05-2004 00:53:01 10.7 C 6.29 g/m*3 10.7 C 0 km/h
606 29-05-2004 01:05:01 10.7 C 6.29 g/m*3 10.7 C 0 km/h
607 29-05-2004 01:17:01 10.1 C 6.15 g/m*3 10.1 C 0 km/h
608 29-05-2004 01:29:01 9.8 C 6.31 g/m*3 9.8 C 0 km/h
609 29-05-2004 01:41:01 9.6 C 6.23 g/m*3 9.6 C 0 km/h
610 29-05-2004 01:53:01 9.4 C 6.24 g/m*3 9.4 C 0 km/h
611 29-05-2004 02:05:01 9.2 C 6.16 g/m*3 9.2 C 0 km/h
612 29-05-2004 02:17:01 9 C 6.26 g/m*3 9 C 0 km/h
613 29-05-2004 02:29:01 9 C 6.26 g/m*3 9 C 0 km/h
614 29-05-2004 02:41:01 8.7 C 6.31 g/m*3 8.7 C 0 km/h
615 29-05-2004 02:54:03 8.6 C 6.27 g/m*3 8.6 C 0 km/h
616 29-05-2004 03:06:03 8.2 C 6.2 g/m*3 8.2 C 0 km/h
617 29-05-2004 03:18:03 8 C 6.2 g/m*3 8 C 0 km/h
618 29-05-2004 03:30:03 7.9 C 6.32 g/m*3 7.9 C 0 km/h
619 29-05-2004 03:42:01 7.8 C 6.37 g/m*3 7.8 C 0 km/h
620 29-05-2004 03:54:01 7.6 C 6.28 g/m*3 7.6 C 0 km/h
621 29-05-2004 04:06:01 7.6 C 6.28 g/m*3 7.6 C 0 km/h
622 29-05-2004 04:18:01 7.5 C 6.24 g/m*3 7.5 C 0 km/h
623 29-05-2004 04:30:01 7.2 C 6.2 g/m*3 7.2 C 0 km/h
624 29-05-2004 04:42:01 7.2 C 6.2 g/m*3 7.2 C 0 km/h
625 29-05-2004 04:54:01 6.9 C 6.24 g/m*3 6.9 C 0 km/h
Sensor: Nr:Datum:Temp:Abs-Feuchte:Windchill:Wind:
Aussen-T/F 626 29-05-2004 05:06:01 6.9 C 6.24 g/m*3 6.9 C 0 km/h
627 29-05-2004 05:18:01 6.7 C 6.15 g/m*3 6.7 C 0 km/h
628 29-05-2004 05:30:01 6.7 C 6.15 g/m*3 6.7 C 0 km/h
629 29-05-2004 05:42:01 6.4 C 6.11 g/m*3 6.4 C 0 km/h
630 29-05-2004 05:54:01 6.4 C 6.18 g/m*3 6.4 C 0 km/h
631 29-05-2004 06:06:01 6.5 C 6.15 g/m*3 6.5 C 0 km/h
632 29-05-2004 06:18:00 6.5 C 6.22 g/m*3 6.5 C 0 km/h
633 29-05-2004 06:30:00 6.6 C 6.27 g/m*3 6.6 C 0 km/h
634 29-05-2004 06:42:00 6.7 C 6.31 g/m*3 6.7 C 0 km/h
635 29-05-2004 06:54:01 6.6 C 6.27 g/m*3 6.6 C 0 km/h
636 29-05-2004 07:06:01 6.7 C 6.38 g/m*3 6.7 C 0 km/h
637 29-05-2004 07:18:01 6.9 C 6.47 g/m*3 6.9 C 0 km/h
638 29-05-2004 07:30:01 7 C 6.35 g/m*3 7 C 0 km/h
639 29-05-2004 07:42:01 7.3 C 6.4 g/m*3 7.3 C 0 km/h
640 29-05-2004 07:54:01 7.5 C 6.48 g/m*3 7.5 C 0 km/h
641 29-05-2004 08:06:01 7.8 C 6.53 g/m*3 7.8 C 0 km/h
642 29-05-2004 08:18:01 8.1 C 6.57 g/m*3 8.1 C 0 km/h
643 29-05-2004 08:30:01 8.5 C 6.66 g/m*3 8.5 C 0 km/h
644 29-05-2004 08:35:00 8.8 C 6.79 g/m*3 8.8 C 0 km/h
645 29-05-2004 08:47:01 9.6 C 6.87 g/m*3 9.6 C 0 km/h
646 29-05-2004 08:59:01 10.1 C 7 g/m*3 10.1 C 0 km/h
647 29-05-2004 09:11:01 11.2 C 7.3 g/m*3 11.2 C 0 km/h
648 29-05-2004 09:23:01 12.1 C 7.4 g/m*3 12.1 C 0 km/h
649 29-05-2004 09:35:01 13 C 7.48 g/m*3 13 C 0 km/h
650 29-05-2004 09:47:01 13.8 C 7.74 g/m*3 13.8 C 0 km/h
Sensor: Nr:Datum:Temp:Abs-Feuchte:Windchill:Wind:
Aussen-T/F 651 29-05-2004 09:59:01 14.8 C 7.22 g/m*3 14.8 C 0 km/h
652 29-05-2004 10:11:01 15.7 C 6.96 g/m*3 15.7 C 0 km/h
653 29-05-2004 10:23:01 16.8 C 6.86 g/m*3 16.8 C 0 km/h
654 29-05-2004 10:35:01 17.3 C 6.78 g/m*3 17.3 C 0 km/h
655 29-05-2004 10:47:01 18.2 C 6.68 g/m*3 18.2 C 0 km/h
656 29-05-2004 10:59:01 18.8 C 6.6 g/m*3 18.8 C 0 km/h
657 29-05-2004 11:11:01 19.7 C 6.45 g/m*3 19.7 C 0 km/h
658 29-05-2004 11:23:01 20.1 C 6.43 g/m*3 20.1 C 0 km/h
659 29-05-2004 11:35:01 20.3 C 5.63 g/m*3 20.3 C 0 km/h
660 29-05-2004 11:47:01 21 C 5.86 g/m*3 21 C 0 km/h
661 29-05-2004 11:59:01 21.4 C 4.69 g/m*3 21.4 C 0 km/h
662 29-05-2004 12:11:01 22.1 C 4.49 g/m*3 22.1 C 0 km/h
663 29-05-2004 12:23:02 21.8 C 4.8 g/m*3 21.8 C 0 km/h
664 29-05-2004 12:35:02 22.2 C 4.91 g/m*3 22.2 C 0 km/h
665 29-05-2004 12:47:01 21.8 C 4.8 g/m*3 21.8 C 0 km/h
666 29-05-2004 12:59:02 23.7 C 4.28 g/m*3 23.7 C 0 km/h
667 29-05-2004 13:11:01 23.9 C 4.33 g/m*3 23.9 C 0 km/h
668 29-05-2004 13:23:01 25.3 C 4.68 g/m*3 25.3 C 0 km/h
669 29-05-2004 13:35:01 25.4 C 4.71 g/m*3 25.4 C 0 km/h
670 29-05-2004 13:47:01 25.3 C 4.68 g/m*3 25.3 C 0 km/h
671 29-05-2004 13:59:01 24.7 C 4.53 g/m*3 24.7 C 0 km/h
672 29-05-2004 14:11:01 24.8 C 4.55 g/m*3 24.8 C 0 km/h
673 29-05-2004 14:23:01 24.6 C 4.73 g/m*3 24.6 C 0 km/h
674 29-05-2004 14:35:02 24.4 C 4.45 g/m*3 24.4 C 0 km/h
675 29-05-2004 14:47:01 25.3 C 4.68 g/m*3 25.3 C 0 km/h
Sensor: Nr:Datum:Temp:Abs-Feuchte:Windchill:Wind:
Aussen-T/F 676 29-05-2004 14:59:01 25.4 C 4.71 g/m*3 25.4 C 0 km/h
677 29-05-2004 15:11:02 26.2 C 4.92 g/m*3 26.2 C 0 km/h
678 29-05-2004 15:23:01 26.5 C 5.01 g/m*3 26.5 C 0 km/h
679 29-05-2004 15:35:02 26.3 C 4.95 g/m*3 26.3 C 0 km/h
680 29-05-2004 15:47:01 27.1 C 5.18 g/m*3 27.1 C 0 km/h
681 29-05-2004 15:59:01 27.6 C 5.32 g/m*3 27.6 C 0 km/h
682 29-05-2004 16:11:02 28.6 C 5.62 g/m*3 28.6 C 0 km/h
683 29-05-2004 16:23:02 28.7 C 5.65 g/m*3 28.7 C 0 km/h
684 29-05-2004 16:35:02 27.7 C 5.35 g/m*3 27.7 C 0 km/h
685 29-05-2004 16:47:02 27.6 C 5.32 g/m*3 27.6 C 0 km/h
686 29-05-2004 16:59:02 26.8 C 5.09 g/m*3 26.8 C 0 km/h
687 29-05-2004 17:11:02 27.7 C 5.35 g/m*3 27.7 C 0 km/h
688 29-05-2004 17:23:02 28.9 C 5.71 g/m*3 28.9 C 0 km/h
689 29-05-2004 17:35:02 27.9 C 5.41 g/m*3 27.9 C 0 km/h
690 29-05-2004 17:47:02 28.6 C 5.62 g/m*3 28.6 C 0 km/h
691 29-05-2004 17:59:02 28.6 C 5.62 g/m*3 28.6 C 0 km/h
692 29-05-2004 18:11:02 28.3 C 5.53 g/m*3 28.3 C 0 km/h
693 29-05-2004 18:23:02 28.7 C 5.65 g/m*3 28.7 C 0 km/h
694 29-05-2004 18:35:02 28.1 C 5.47 g/m*3 28.1 C 0 km/h
695 29-05-2004 18:47:01 27 C 5.15 g/m*3 27 C 0 km/h
696 29-05-2004 18:59:01 27.3 C 5.23 g/m*3 27.3 C 0 km/h
697 29-05-2004 19:11:01 27.3 C 5.23 g/m*3 27.3 C 0 km/h
698 29-05-2004 19:23:01 27.5 C 5.29 g/m*3 27.5 C 0 km/h
699 29-05-2004 19:35:01 26.8 C 5.09 g/m*3 26.8 C 0 km/h
700 29-05-2004 19:47:01 26.2 C 5.66 g/m*3 26.2 C 0 km/h
Sensor: Nr:Datum:Temp:Abs-Feuchte:Windchill:Wind:
Aussen-T/F 701 29-05-2004 19:59:01 26 C 5.36 g/m*3 26 C 0 km/h
702 29-05-2004 20:11:01 25.8 C 5.54 g/m*3 25.8 C 0 km/h
703 29-05-2004 20:23:01 25.6 C 6.19 g/m*3 25.6 C 0 km/h
704 29-05-2004 20:35:01 24.2 C 6.16 g/m*3 24.2 C 0 km/h
705 29-05-2004 20:47:01 22.4 C 6.16 g/m*3 22.4 C 0 km/h
706 29-05-2004 20:59:01 20.9 C 6.37 g/m*3 20.9 C 0 km/h
707 29-05-2004 21:11:01 19.9 C 6.19 g/m*3 19.9 C 0 km/h
708 29-05-2004 21:23:01 19.2 C 5.94 g/m*3 19.2 C 0 km/h
709 29-05-2004 21:35:01 18.7 C 5.92 g/m*3 18.7 C 0 km/h
710 29-05-2004 21:47:01 18.1 C 5.87 g/m*3 18.1 C 0 km/h
711 29-05-2004 21:59:01 17.7 C 6.19 g/m*3 17.7 C 0 km/h
712 29-05-2004 22:11:01 17.7 C 6.19 g/m*3 17.7 C 0 km/h
713 29-05-2004 22:23:01 17.5 C 6.26 g/m*3 17.5 C 0 km/h
714 29-05-2004 22:35:01 17.2 C 6.15 g/m*3 17.2 C 0 km/h
715 29-05-2004 22:47:01 17.1 C 6.26 g/m*3 17.1 C 0 km/h
716 29-05-2004 22:59:01 16.8 C 6.29 g/m*3 16.8 C 0 km/h
717 29-05-2004 23:11:01 16.4 C 6.28 g/m*3 16.4 C 0 km/h
718 29-05-2004 23:23:01 16.2 C 6.48 g/m*3 16.2 C 0 km/h
719 29-05-2004 23:35:01 16.2 C 6.34 g/m*3 16.2 C 0 km/h
720 29-05-2004 23:47:01 16 C 6.27 g/m*3 16 C 0 km/h
721 29-05-2004 23:59:01 15.5 C 6.08 g/m*3 15.5 C 0 km/h
722 30-05-2004 00:11:01 15.4 C 6.31 g/m*3 15.4 C 0 km/h
723 30-05-2004 00:23:01 15.4 C 6.31 g/m*3 15.4 C 0 km/h
724 30-05-2004 00:35:01 14.9 C 6.12 g/m*3 14.9 C 0 km/h
725 30-05-2004 00:47:01 14.9 C 6.25 g/m*3 14.9 C 0 km/h
Sensor: Nr:Datum:Temp:Abs-Feuchte:Windchill:Wind:
Aussen-T/F 726 30-05-2004 00:59:01 14.7 C 6.17 g/m*3 14.7 C 0 km/h
727 30-05-2004 01:11:01 14.5 C 6.22 g/m*3 14.5 C 0 km/h
728 30-05-2004 01:23:01 14.2 C 6.35 g/m*3 14.2 C 0 km/h
729 30-05-2004 01:35:01 13.9 C 6.35 g/m*3 13.9 C 0 km/h
730 30-05-2004 01:47:01 13.7 C 6.51 g/m*3 13.7 C 0 km/h
731 30-05-2004 01:59:01 13.4 C 6.74 g/m*3 13.4 C 0 km/h
732 30-05-2004 02:11:01 13.2 C 6.89 g/m*3 13.2 C 0 km/h
733 30-05-2004 02:23:01 13 C 7.14 g/m*3 13 C 0 km/h
734 30-05-2004 02:35:01 12.5 C 7.26 g/m*3 12.5 C 0 km/h
735 30-05-2004 02:48:02 12.4 C 7.43 g/m*3 12.4 C 0 km/h
736 30-05-2004 03:00:02 12.2 C 7.34 g/m*3 12.2 C 0 km/h
737 30-05-2004 03:12:02 12 C 7.25 g/m*3 12 C 0 km/h
738 30-05-2004 03:24:02 11.7 C 7.32 g/m*3 11.7 C 0 km/h
739 30-05-2004 03:36:01 11.5 C 7.23 g/m*3 11.5 C 0 km/h
740 30-05-2004 03:48:01 11.3 C 7.24 g/m*3 11.3 C 0 km/h
741 30-05-2004 04:00:01 11.2 C 7.2 g/m*3 11.2 C 0 km/h
742 30-05-2004 04:12:01 10.9 C 7.06 g/m*3 10.9 C 0 km/h
743 30-05-2004 04:24:01 10.6 C 7.12 g/m*3 10.6 C 0 km/h
744 30-05-2004 04:36:01 10.7 C 7.07 g/m*3 10.7 C 0 km/h
745 30-05-2004 04:48:01 10.4 C 6.94 g/m*3 10.4 C 0 km/h
746 30-05-2004 05:00:01 10.4 C 6.94 g/m*3 10.4 C 0 km/h
747 30-05-2004 05:12:01 10.1 C 6.81 g/m*3 10.1 C 0 km/h
748 30-05-2004 05:24:01 10 C 6.86 g/m*3 10 C 0 km/h
749 30-05-2004 05:36:01 10 C 6.86 g/m*3 10 C 0 km/h
750 30-05-2004 05:48:01 10 C 6.86 g/m*3 10 C 0 km/h
Sensor: Nr:Datum:Temp:Abs-Feuchte:Windchill:Wind:
Aussen-T/F 751 30-05-2004 06:00:01 10 C 6.86 g/m*3 10 C 0 km/h
752 30-05-2004 06:12:01 10 C 6.86 g/m*3 10 C 0 km/h
753 30-05-2004 06:24:01 9.9 C 7 g/m*3 9.9 C 0 km/h
754 30-05-2004 06:36:01 10 C 6.95 g/m*3 10 C 0 km/h
755 30-05-2004 06:48:01 10.1 C 6.9 g/m*3 10.1 C 0 km/h
756 30-05-2004 07:00:01 10 C 6.86 g/m*3 10 C 0 km/h
757 30-05-2004 07:12:01 10.2 C 7.04 g/m*3 10.2 C 0 km/h
758 30-05-2004 07:24:01 10.2 C 7.14 g/m*3 10.2 C 0 km/h
759 30-05-2004 07:36:01 10 C 7.05 g/m*3 10 C 0 km/h
760 30-05-2004 07:48:01 10 C 7.14 g/m*3 10 C 0 km/h
761 30-05-2004 08:00:01 10.2 C 7.04 g/m*3 10.2 C 0 km/h
762 30-05-2004 08:12:01 10.5 C 7.08 g/m*3 10.5 C 0 km/h
763 30-05-2004 08:24:01 10.9 C 7.26 g/m*3 10.9 C 0 km/h
764 30-05-2004 08:36:01 11.4 C 7.29 g/m*3 11.4 C 0 km/h
765 30-05-2004 08:48:01 12.1 C 7.51 g/m*3 12.1 C 0 km/h
766 30-05-2004 09:00:01 12.9 C 7.66 g/m*3 12.9 C 0 km/h
767 30-05-2004 09:12:02 13.6 C 7.77 g/m*3 13.6 C 0 km/h
768 30-05-2004 09:16:02 13.6 C 7.77 g/m*3 13.6 C 0 km/h
769 30-05-2004 09:21:02 13.9 C 7.91 g/m*3 13.9 C 0 km/h
770 30-05-2004 09:26:02 14.3 C 7.99 g/m*3 14.3 C 0 km/h
771 30-05-2004 09:31:02 14.7 C 8.06 g/m*3 14.7 C 0 km/h
772 30-05-2004 09:36:02 14.7 C 8.06 g/m*3 14.7 C 0 km/h
773 30-05-2004 09:41:02 15.4 C 7.88 g/m*3 15.4 C 0 km/h
774 30-05-2004 09:46:01 16 C 8.04 g/m*3 16 C 0 km/h
775 30-05-2004 09:51:01 16.6 C 8.19 g/m*3 16.6 C 0 km/h
Sensor: Nr:Datum:Temp:Abs-Feuchte:Windchill:Wind:
Aussen-T/F 776 30-05-2004 09:56:01 16.6 C 8.19 g/m*3 16.6 C 0 km/h
777 30-05-2004 10:01:01 17.5 C 7.6 g/m*3 17.5 C 0 km/h
778 30-05-2004 10:06:01 17.9 C 7.48 g/m*3 17.9 C 0 km/h
779 30-05-2004 10:11:01 18.3 C 7.04 g/m*3 18.3 C 0 km/h
780 30-05-2004 10:16:01 18.7 C 6.72 g/m*3 18.7 C 0 km/h
781 30-05-2004 10:21:01 19.3 C 6.8 g/m*3 19.3 C 0 km/h
782 30-05-2004 10:26:01 19.3 C 6.47 g/m*3 19.3 C 0 km/h
783 30-05-2004 10:31:48 19.7 C 6.11 g/m*3 19.7 C 0 km/h
784 30-05-2004 10:36:48 20 C 6.05 g/m*3 20 C 0 km/h
785 30-05-2004 10:42:01 20.6 C 6.09 g/m*3 20.6 C 0 km/h
786 30-05-2004 10:54:01 21.1 C 5.53 g/m*3 21.1 C 0 km/h
787 30-05-2004 11:06:01 21.9 C 5.4 g/m*3 21.9 C 0 km/h
788 30-05-2004 11:18:01 22.1 C 5.08 g/m*3 22.1 C 0 km/h
789 30-05-2004 11:30:01 22.6 C 4.62 g/m*3 22.6 C 0 km/h
790 30-05-2004 11:42:01 22.9 C 4.5 g/m*3 22.9 C 0 km/h
791 30-05-2004 11:54:01 23.2 C 4.37 g/m*3 23.2 C 0 km/h
792 30-05-2004 12:06:01 23.8 C 4.52 g/m*3 23.8 C 0 km/h
793 30-05-2004 12:18:01 23.8 C 4.52 g/m*3 23.8 C 0 km/h
794 30-05-2004 12:30:01 24.5 C 4.48 g/m*3 24.5 C 0 km/h
795 30-05-2004 12:42:01 25.1 C 4.63 g/m*3 25.1 C 0 km/h
796 30-05-2004 12:54:01 25.6 C 4.76 g/m*3 25.6 C 0 km/h
797 30-05-2004 13:06:01 25.4 C 4.71 g/m*3 25.4 C 0 km/h
798 30-05-2004 13:18:01 25.4 C 4.71 g/m*3 25.4 C 0 km/h
799 30-05-2004 13:30:01 26.1 C 4.9 g/m*3 26.1 C 0 km/h
800 30-05-2004 13:42:01 25 C 4.6 g/m*3 25 C 0 km/h
Sensor: Nr:Datum:Temp:Abs-Feuchte:Windchill:Wind:
Aussen-T/F 801 30-05-2004 13:54:01 25.9 C 4.84 g/m*3 25.9 C 0 km/h
802 30-05-2004 14:07:01 25.9 C 4.84 g/m*3 25.9 C 0 km/h
803 30-05-2004 14:19:01 26.5 C 5.01 g/m*3 26.5 C 0 km/h
804 30-05-2004 14:31:01 26.5 C 5.01 g/m*3 26.5 C 0 km/h
805 30-05-2004 14:43:01 26.5 C 5.01 g/m*3 26.5 C 0 km/h
806 30-05-2004 14:55:01 26.5 C 5.01 g/m*3 26.5 C 0 km/h
807 30-05-2004 15:07:01 26.5 C 5.01 g/m*3 26.5 C 0 km/h
808 30-05-2004 15:19:01 26.5 C 5.01 g/m*3 26.5 C 0 km/h
809 30-05-2004 15:31:01 26.5 C 5.01 g/m*3 26.5 C 0 km/h
810 30-05-2004 15:43:01 26.5 C 5.01 g/m*3 26.5 C 0 km/h
811 30-05-2004 15:55:01 26.5 C 5.01 g/m*3 26.5 C 0 km/h
812 30-05-2004 16:07:01 26.5 C 5.01 g/m*3 26.5 C 0 km/h
813 30-05-2004 16:19:01 27.1 C 5.18 g/m*3 27.1 C 0 km/h
814 30-05-2004 16:31:01 27.9 C 5.41 g/m*3 27.9 C 0 km/h
815 30-05-2004 16:43:01 28.5 C 5.59 g/m*3 28.5 C 0 km/h
816 30-05-2004 16:55:01 28.4 C 5.56 g/m*3 28.4 C 0 km/h
817 30-05-2004 17:07:01 28.9 C 5.71 g/m*3 28.9 C 0 km/h
818 30-05-2004 17:19:02 28.3 C 5.53 g/m*3 28.3 C 0 km/h
819 30-05-2004 17:31:01 27.6 C 5.32 g/m*3 27.6 C 0 km/h
820 30-05-2004 17:43:01 28 C 5.44 g/m*3 28 C 0 km/h
821 30-05-2004 17:55:01 28.1 C 5.74 g/m*3 28.1 C 0 km/h
822 30-05-2004 18:07:01 27.5 C 5.29 g/m*3 27.5 C 0 km/h
823 30-05-2004 18:19:01 27.1 C 5.95 g/m*3 27.1 C 0 km/h
824 30-05-2004 18:31:01 26.5 C 6.76 g/m*3 26.5 C 0 km/h
825 30-05-2004 18:43:01 26 C 7.3 g/m*3 26 C 0 km/h
Sensor: Nr:Datum:Temp:Abs-Feuchte:Windchill:Wind:
Aussen-T/F 826 30-05-2004 18:55:01 24.7 C 7.02 g/m*3 24.7 C 0 km/h
827 30-05-2004 19:07:01 24.4 C 5.56 g/m*3 24.4 C 0 km/h
828 30-05-2004 19:19:01 24.3 C 6.2 g/m*3 24.3 C 0 km/h
829 30-05-2004 19:31:01 23.4 C 5.89 g/m*3 23.4 C 0 km/h
830 30-05-2004 19:43:01 23.3 C 6.06 g/m*3 23.3 C 0 km/h
831 30-05-2004 19:55:01 23.1 C 6.2 g/m*3 23.1 C 0 km/h
832 30-05-2004 20:07:01 22.9 C 6.34 g/m*3 22.9 C 0 km/h
833 30-05-2004 20:19:01 22.8 C 6.5 g/m*3 22.8 C 0 km/h
834 30-05-2004 20:31:01 22.5 C 6.79 g/m*3 22.5 C 0 km/h
835 30-05-2004 20:43:01 22.1 C 6.83 g/m*3 22.1 C 0 km/h
836 30-05-2004 20:55:01 21.6 C 7.02 g/m*3 21.6 C 0 km/h
837 30-05-2004 21:07:01 21.1 C 7 g/m*3 21.1 C 0 km/h
838 30-05-2004 21:19:02 20.4 C 6.9 g/m*3 20.4 C 0 km/h
839 30-05-2004 21:31:02 20 C 7.26 g/m*3 20 C 0 km/h
840 30-05-2004 21:43:02 19.7 C 7.13 g/m*3 19.7 C 0 km/h
841 30-05-2004 21:55:02 19.8 C 7.17 g/m*3 19.8 C 0 km/h
842 30-05-2004 22:07:02 20 C 6.91 g/m*3 20 C 0 km/h
843 30-05-2004 22:19:02 20.1 C 6.95 g/m*3 20.1 C 0 km/h
844 30-05-2004 22:31:02 19.8 C 7 g/m*3 19.8 C 0 km/h
845 30-05-2004 22:43:02 19.3 C 7.46 g/m*3 19.3 C 0 km/h
846 30-05-2004 22:55:02 18.9 C 8.1 g/m*3 18.9 C 0 km/h
847 30-05-2004 23:07:02 18.7 C 8.49 g/m*3 18.7 C 0 km/h
848 30-05-2004 23:19:02 18.5 C 8.86 g/m*3 18.5 C 0 km/h
849 30-05-2004 23:31:02 18.6 C 8.91 g/m*3 18.6 C 0 km/h
850 30-05-2004 23:43:02 18.4 C 8.97 g/m*3 18.4 C 0 km/h
Sensor: Nr:Datum:Temp:Abs-Feuchte:Windchill:Wind:
Aussen-T/F 851 30-05-2004 23:55:01 18 C 9.06 g/m*3 18 C 0 km/h

Legende:
   Min
   Max


Maximal/Minimal-Werte vom 24.05.2004 - 30.05.2004

Sensor Min Max Avg
Temp
(Aussen-T/F)
2.7 °C
24-05-2004  06:13:02
28.9 °C
29-05-2004  17:23:02
14.9 °C
Abs-Feuchte
(Aussen-T/F)
3.99 g/m*3
28-05-2004  16:41:01
9.06 g/m*3
30-05-2004  23:55:01
5.75 g/m*3
Windchill
(Aussen-T/F)
2.7 C
24-05-2004  06:13:02
28.9 C
29-05-2004  17:23:02
14.89 C

Die Daten stammen von einer Davis Vantage Pro 2 Wetter-Station und werden unter Linux mit der Software wview2wettercgi und aufbereitet. Alle Angaben erfolgen ohne Gewähr für ihre Vollständigkeit oder Richtigkeit.
Kontakt: Rainer Krienke krienke@uni-koblenz.de . Meine Webseiten an der Uni Koblenz oder privat.
Version: $Revision: 0.78 $